createdAt,value
2018-09-15T00:01:46.758Z,7.50
2018-09-15T00:04:18.613Z,7.70
2018-09-15T00:06:50.399Z,8.00
2018-09-15T00:09:22.624Z,9.20
2018-09-15T00:11:54.353Z,7.70
2018-09-15T00:14:26.751Z,9.00
2018-09-15T00:16:58.526Z,8.80
2018-09-15T00:19:31.206Z,8.40
2018-09-15T00:22:03.406Z,8.10
2018-09-15T00:24:35.911Z,7.10
2018-09-15T00:27:08.540Z,7.30
2018-09-15T00:29:40.544Z,9.10
2018-09-15T00:32:13.032Z,7.60
2018-09-15T00:34:45.023Z,6.80
2018-09-15T00:37:17.165Z,8.20
2018-09-15T00:39:49.965Z,7.20
2018-09-15T00:42:22.106Z,7.20
2018-09-15T00:44:54.662Z,7.60
2018-09-15T00:47:27.043Z,9.40
2018-09-15T00:49:58.826Z,8.80
2018-09-15T00:52:30.602Z,9.50
2018-09-15T00:55:02.619Z,9.10
2018-09-15T00:57:34.418Z,9.60
2018-09-15T01:00:07.880Z,9.80
2018-09-15T01:02:40.008Z,9.20
2018-09-15T01:05:12.423Z,11.20
2018-09-15T01:07:44.792Z,11.00
2018-09-15T01:10:17.159Z,10.80
2018-09-15T01:12:49.763Z,12.40
2018-09-15T01:15:22.095Z,13.10
2018-09-15T01:17:54.304Z,12.80
2018-09-15T01:20:26.504Z,12.80
2018-09-15T01:22:58.553Z,12.80
2018-09-15T01:25:30.767Z,12.90
2018-09-15T01:28:02.938Z,13.60
2018-09-15T01:30:35.385Z,14.50
2018-09-15T01:33:08.058Z,14.20
2018-09-15T01:35:40.342Z,14.00
2018-09-15T01:38:12.902Z,14.70
2018-09-15T01:40:45.021Z,16.00
2018-09-15T01:43:19.529Z,15.30
2018-09-15T01:45:51.632Z,14.60
2018-09-15T01:48:24.001Z,14.80
2018-09-15T01:50:56.241Z,14.80
2018-09-15T01:53:28.339Z,15.00
2018-09-15T01:56:00.773Z,15.40
2018-09-15T01:58:33.201Z,15.30
2018-09-15T02:01:05.605Z,15.80
2018-09-15T02:03:37.921Z,15.00
2018-09-15T02:06:10.206Z,16.00
2018-09-15T02:08:42.597Z,15.80
2018-09-15T02:11:14.935Z,16.30
2018-09-15T02:13:48.214Z,16.80
2018-09-15T02:16:20.994Z,16.40
2018-09-15T02:18:53.168Z,16.30
2018-09-15T02:21:25.501Z,18.00
2018-09-15T02:23:58.018Z,19.70
2018-09-15T02:26:30.962Z,21.60
2018-09-15T02:29:03.728Z,21.80
2018-09-15T02:31:36.399Z,22.40
2018-09-15T02:34:09.050Z,22.90
2018-09-15T02:36:41.505Z,23.70
2018-09-15T02:39:14.610Z,24.50
2018-09-15T02:41:46.813Z,24.30
2018-09-15T02:44:19.813Z,24.70
2018-09-15T02:46:52.073Z,24.30
2018-09-15T02:49:23.995Z,25.20
2018-09-15T02:51:56.307Z,24.60
2018-09-15T02:54:28.503Z,25.40
2018-09-15T02:57:00.473Z,24.80
2018-09-15T02:59:32.728Z,25.20
2018-09-15T03:02:05.492Z,24.90
2018-09-15T03:04:37.869Z,25.40
2018-09-15T03:07:10.899Z,26.10
2018-09-15T03:09:43.435Z,26.40
2018-09-15T03:12:15.980Z,26.40
2018-09-15T03:14:48.538Z,26.30
2018-09-15T03:17:20.816Z,27.40
2018-09-15T03:19:53.443Z,27.70
2018-09-15T03:22:25.898Z,27.20
2018-09-15T03:24:58.505Z,28.20
2018-09-15T03:27:30.945Z,28.10
2018-09-15T03:30:03.559Z,28.20
2018-09-15T03:32:36.039Z,29.00
2018-09-15T03:35:08.343Z,29.60
2018-09-15T03:37:41.044Z,29.70
2018-09-15T03:40:13.593Z,30.00
2018-09-15T03:42:45.924Z,30.50
2018-09-15T03:45:18.094Z,31.20
2018-09-15T03:47:50.301Z,32.00
2018-09-15T03:50:22.596Z,32.80
2018-09-15T03:52:55.358Z,33.30
2018-09-15T03:55:27.548Z,33.70
2018-09-15T03:58:00.306Z,33.20
2018-09-15T04:00:32.818Z,33.40
2018-09-15T04:03:05.655Z,33.80
2018-09-15T04:05:38.042Z,33.80
2018-09-15T04:08:10.413Z,34.20
2018-09-15T04:10:42.387Z,33.80
2018-09-15T04:13:14.589Z,34.50
2018-09-15T04:15:46.910Z,35.50
2018-09-15T04:18:19.362Z,35.60
2018-09-15T04:20:51.405Z,35.60
2018-09-15T04:23:23.817Z,35.60
2018-09-15T04:25:55.977Z,37.70
2018-09-15T04:28:28.426Z,38.20
2018-09-15T04:31:01.767Z,39.20
2018-09-15T04:33:33.892Z,39.60
2018-09-15T04:36:06.652Z,39.40
2018-09-15T04:38:39.426Z,41.00
2018-09-15T04:41:11.754Z,41.50
2018-09-15T04:43:44.582Z,42.00
2018-09-15T04:46:17.571Z,42.30
2018-09-15T04:48:49.862Z,44.10
2018-09-15T04:51:21.904Z,44.70
2018-09-15T04:53:54.217Z,46.40
2018-09-15T04:56:26.129Z,47.50
2018-09-15T04:58:58.014Z,48.60
2018-09-15T05:01:30.427Z,49.50
2018-09-15T05:04:03.415Z,50.20
2018-09-15T05:06:35.494Z,51.10
2018-09-15T05:09:09.886Z,52.30
2018-09-15T05:11:41.764Z,53.00
2018-09-15T05:14:14.012Z,53.90
2018-09-15T05:16:45.928Z,54.40
2018-09-15T05:19:18.274Z,54.90
2018-09-15T05:21:50.811Z,56.00
2018-09-15T05:24:22.812Z,56.90
2018-09-15T05:26:55.628Z,57.40
2018-09-15T05:29:27.818Z,58.90
2018-09-15T05:32:00.157Z,59.40
2018-09-15T05:34:32.189Z,59.80
2018-09-15T05:37:04.315Z,60.10
2018-09-15T05:39:36.324Z,60.10
2018-09-15T05:42:09.196Z,60.20
2018-09-15T05:44:42.033Z,60.70
2018-09-15T05:47:14.394Z,61.70
2018-09-15T05:49:46.584Z,62.00
2018-09-15T05:52:19.136Z,62.00
2018-09-15T05:54:51.109Z,62.50
2018-09-15T05:57:23.501Z,62.70
2018-09-15T05:59:55.877Z,62.60
2018-09-15T06:02:28.405Z,62.60
2018-09-15T06:05:01.357Z,62.60
2018-09-15T06:07:34.846Z,62.80
2018-09-15T06:10:07.642Z,63.00
2018-09-15T06:12:39.745Z,63.40
2018-09-15T06:15:11.941Z,63.70
2018-09-15T06:17:44.304Z,64.00
2018-09-15T06:20:16.447Z,64.10
2018-09-15T06:22:48.821Z,64.40
2018-09-15T06:25:20.845Z,64.60
2018-09-15T06:27:52.857Z,64.60
2018-09-15T06:30:25.189Z,64.50
2018-09-15T06:32:57.769Z,65.00
2018-09-15T06:35:30.544Z,65.30
2018-09-15T06:38:02.882Z,65.20
2018-09-15T06:40:35.141Z,64.70
2018-09-15T06:43:07.197Z,64.60
2018-09-15T06:45:38.967Z,64.20
2018-09-15T06:48:11.205Z,63.70
2018-09-15T06:50:43.383Z,64.60
2018-09-15T06:53:15.842Z,64.80
2018-09-15T06:55:47.938Z,65.00
2018-09-15T06:58:20.350Z,65.60
2018-09-15T07:00:52.404Z,65.60
2018-09-15T07:03:24.706Z,66.00
2018-09-15T07:05:56.881Z,66.70
2018-09-15T07:08:29.897Z,67.50
2018-09-15T07:11:01.943Z,68.20
2018-09-15T07:13:34.187Z,69.20
2018-09-15T07:16:06.290Z,69.80
2018-09-15T07:18:38.460Z,70.40
2018-09-15T07:21:11.396Z,70.40
2018-09-15T07:23:43.955Z,70.50
2018-09-15T07:26:15.969Z,70.30
2018-09-15T07:28:48.431Z,70.00
2018-09-15T07:31:20.748Z,69.70
2018-09-15T07:33:53.462Z,69.40
2018-09-15T07:36:25.674Z,68.80
2018-09-15T07:38:57.988Z,68.60
2018-09-15T07:41:30.198Z,69.10
2018-09-15T07:44:02.958Z,69.00
2018-09-15T07:46:35.268Z,69.10
2018-09-15T07:49:07.422Z,68.80
2018-09-15T07:51:39.577Z,69.10
2018-09-15T07:54:12.134Z,69.30
2018-09-15T07:56:44.513Z,69.30
2018-09-15T07:59:16.459Z,69.70
2018-09-15T08:01:48.453Z,69.10
2018-09-15T08:04:20.607Z,69.00
2018-09-15T08:06:52.966Z,69.20
2018-09-15T08:09:24.942Z,69.20
2018-09-15T08:11:57.324Z,69.40
2018-09-15T08:14:30.358Z,69.20
2018-09-15T08:17:02.532Z,69.20
2018-09-15T08:19:34.844Z,69.50
2018-09-15T08:22:07.157Z,70.30
2018-09-15T08:24:39.534Z,70.40
2018-09-15T08:27:12.192Z,70.50
2018-09-15T08:29:45.277Z,70.90
2018-09-15T08:32:17.385Z,70.90
2018-09-15T08:34:50.223Z,70.10
2018-09-15T08:37:22.428Z,70.10
2018-09-15T08:39:54.489Z,70.10
2018-09-15T08:42:26.769Z,70.00
2018-09-15T08:44:59.321Z,70.10
2018-09-15T08:47:31.696Z,70.10
2018-09-15T08:50:03.986Z,70.50
2018-09-15T08:52:37.091Z,70.40
2018-09-15T08:55:09.449Z,70.60
2018-09-15T08:57:41.828Z,70.10
2018-09-15T09:00:14.017Z,69.90
2018-09-15T09:02:46.400Z,70.10
2018-09-15T09:05:18.735Z,70.10
2018-09-15T09:07:51.243Z,70.10
2018-09-15T09:10:23.852Z,69.90
2018-09-15T09:12:56.412Z,70.00
2018-09-15T09:15:28.801Z,70.20
2018-09-15T09:18:00.985Z,70.50
2018-09-15T09:20:33.363Z,70.90
2018-09-15T09:23:05.639Z,71.00
2018-09-15T09:25:38.412Z,71.20
2018-09-15T09:28:10.528Z,71.00
2018-09-15T09:30:42.930Z,71.20
2018-09-15T09:33:15.515Z,71.30
2018-09-15T09:35:47.639Z,71.60
2018-09-15T09:38:20.018Z,72.50
2018-09-15T09:40:52.161Z,72.10
2018-09-15T09:43:24.789Z,72.40
2018-09-15T09:45:57.275Z,72.60
2018-09-15T09:48:29.207Z,72.70
2018-09-15T09:51:01.726Z,73.60
2018-09-15T09:53:33.908Z,75.50
2018-09-15T09:56:06.361Z,76.30
2018-09-15T09:58:38.517Z,76.80
2018-09-15T10:01:15.174Z,77.20
2018-09-15T10:03:47.345Z,77.30
2018-09-15T10:06:19.369Z,77.10
2018-09-15T10:08:51.481Z,77.20
2018-09-15T10:11:23.755Z,76.90
2018-09-15T10:13:56.026Z,76.60
2018-09-15T10:16:28.198Z,76.50
2018-09-15T10:19:00.202Z,77.20
2018-09-15T10:21:32.604Z,77.40
2018-09-15T10:24:05.090Z,77.30
2018-09-15T10:26:37.286Z,76.90
2018-09-15T10:29:09.508Z,77.20
2018-09-15T10:31:41.599Z,78.50
2018-09-15T10:34:14.253Z,79.50
2018-09-15T10:36:46.565Z,80.10
2018-09-15T10:39:18.962Z,80.00
2018-09-15T10:41:51.320Z,80.50
2018-09-15T10:44:24.039Z,80.00
2018-09-15T10:46:56.075Z,80.10
2018-09-15T10:49:28.587Z,80.10
2018-09-15T10:52:01.473Z,80.20
2018-09-15T10:54:33.778Z,80.20
2018-09-15T10:57:05.870Z,80.20
2018-09-15T10:59:38.047Z,80.50
2018-09-15T11:02:13.931Z,81.00
2018-09-15T11:04:47.418Z,81.40
2018-09-15T11:07:19.663Z,82.00
2018-09-15T11:09:52.038Z,82.20
2018-09-15T11:12:24.156Z,82.30
2018-09-15T11:14:56.785Z,82.20
2018-09-15T11:17:29.081Z,82.20
2018-09-15T11:20:01.565Z,82.10
2018-09-15T11:22:33.744Z,82.00
2018-09-15T11:25:05.888Z,81.70
2018-09-15T11:27:38.165Z,81.70
2018-09-15T11:30:10.224Z,81.60
2018-09-15T11:32:42.537Z,81.60
2018-09-15T11:35:15.525Z,82.00
2018-09-15T11:37:47.858Z,82.10
2018-09-15T11:40:20.177Z,82.10
2018-09-15T11:42:52.500Z,81.80
2018-09-15T11:45:24.673Z,81.60
2018-09-15T11:47:56.928Z,81.40
2018-09-15T11:50:29.217Z,81.20
2018-09-15T11:53:01.843Z,81.00
2018-09-15T11:55:33.842Z,81.20
2018-09-15T11:58:05.877Z,81.40
2018-09-15T12:00:40.926Z,81.30
2018-09-15T12:03:12.822Z,81.70
2018-09-15T12:05:45.080Z,81.40
2018-09-15T12:08:17.477Z,81.40
2018-09-15T12:10:49.872Z,81.30
2018-09-15T12:13:22.347Z,81.30
2018-09-15T12:15:54.684Z,81.10
2018-09-15T12:18:26.663Z,81.50
2018-09-15T12:20:58.984Z,81.70
2018-09-15T12:23:31.222Z,81.70
2018-09-15T12:26:03.471Z,81.70
2018-09-15T12:28:35.666Z,81.80
2018-09-15T12:31:08.618Z,82.10
2018-09-15T12:33:40.916Z,82.10
2018-09-15T12:36:13.047Z,82.50
2018-09-15T12:38:45.502Z,82.70
2018-09-15T12:41:17.753Z,82.40
2018-09-15T12:43:49.462Z,82.40
2018-09-15T12:46:21.769Z,82.30
2018-09-15T12:48:54.089Z,82.00
2018-09-15T12:51:26.412Z,82.10
2018-09-15T12:53:58.710Z,81.50
2018-09-15T12:56:30.858Z,81.40
2018-09-15T12:59:03.070Z,80.60
2018-09-15T13:01:35.422Z,80.10
2018-09-15T13:04:08.050Z,80.60
2018-09-15T13:06:40.285Z,80.70
2018-09-15T13:09:13.837Z,80.50
2018-09-15T13:11:46.101Z,80.80
2018-09-15T13:14:18.521Z,81.10
2018-09-15T13:16:50.586Z,81.40
2018-09-15T13:19:22.966Z,81.20
2018-09-15T13:21:55.099Z,81.00
2018-09-15T13:24:27.282Z,80.60
2018-09-15T13:26:59.417Z,80.70
2018-09-15T13:29:31.499Z,80.90
2018-09-15T13:32:03.735Z,81.10
2018-09-15T13:34:35.749Z,81.30
2018-09-15T13:37:07.906Z,81.20
2018-09-15T13:39:40.738Z,80.80
2018-09-15T13:42:12.825Z,80.50
2018-09-15T13:44:45.448Z,80.20
2018-09-15T13:47:18.881Z,80.60
2018-09-15T13:49:51.041Z,80.40
2018-09-15T13:52:23.130Z,80.80
2018-09-15T13:54:55.522Z,81.70
2018-09-15T13:57:27.878Z,81.20
2018-09-15T14:00:00.122Z,81.10
2018-09-15T14:02:37.013Z,81.30
2018-09-15T14:05:09.405Z,81.50
2018-09-15T14:07:42.175Z,81.70
2018-09-15T14:10:19.013Z,81.90
2018-09-15T14:12:46.586Z,81.90
2018-09-15T14:15:18.931Z,81.80
2018-09-15T14:17:52.034Z,82.40
2018-09-15T14:20:24.362Z,82.00
2018-09-15T14:22:56.526Z,82.00
2018-09-15T14:25:28.863Z,82.40
2018-09-15T14:28:01.344Z,82.60
2018-09-15T14:30:33.870Z,82.50
2018-09-15T14:33:06.189Z,82.20
2018-09-15T14:35:38.509Z,81.70
2018-09-15T14:38:10.636Z,79.10
2018-09-15T14:40:43.467Z,77.50
2018-09-15T14:43:15.539Z,76.60
2018-09-15T14:45:48.129Z,76.50
2018-09-15T14:48:20.630Z,76.70
2018-09-15T14:50:52.840Z,75.80
2018-09-15T14:53:25.282Z,74.80
2018-09-15T14:55:57.370Z,72.00
2018-09-15T14:58:29.497Z,71.50
2018-09-15T15:01:01.598Z,71.90
2018-09-15T15:03:33.657Z,72.40
2018-09-15T15:06:06.073Z,71.20
2018-09-15T15:08:38.184Z,70.60
2018-09-15T15:11:10.409Z,69.70
2018-09-15T15:13:42.596Z,66.40
2018-09-15T15:16:15.335Z,65.30
2018-09-15T15:18:47.489Z,64.80
2018-09-15T15:21:19.665Z,64.30
2018-09-15T15:23:51.925Z,64.50
2018-09-15T15:26:23.985Z,64.70
2018-09-15T15:28:56.320Z,62.60
2018-09-15T15:31:28.525Z,63.80
2018-09-15T15:34:00.859Z,63.90
2018-09-15T15:36:33.164Z,61.80
2018-09-15T15:39:06.969Z,62.00
2018-09-15T15:41:39.379Z,61.40
2018-09-15T15:44:11.569Z,61.60
2018-09-15T15:46:43.860Z,60.60
2018-09-15T15:49:16.129Z,59.00
2018-09-15T15:51:48.616Z,59.00
2018-09-15T15:54:20.993Z,57.10
2018-09-15T15:56:53.111Z,57.20
2018-09-15T15:59:25.451Z,58.10
2018-09-15T16:01:57.857Z,57.60
2018-09-15T16:04:30.276Z,58.20
2018-09-15T16:07:02.583Z,57.00
2018-09-15T16:09:35.055Z,55.00
2018-09-15T16:12:07.583Z,54.70
2018-09-15T16:14:39.702Z,54.70
2018-09-15T16:17:11.838Z,52.20
2018-09-15T16:19:44.250Z,50.40
2018-09-15T16:22:16.773Z,52.50
2018-09-15T16:24:49.011Z,49.70
2018-09-15T16:27:21.097Z,49.00
2018-09-15T16:29:53.145Z,52.10
2018-09-15T16:32:25.694Z,49.50
2018-09-15T16:34:58.248Z,48.20
2018-09-15T16:37:30.584Z,47.10
2018-09-15T16:40:02.948Z,47.10
2018-09-15T16:42:35.117Z,45.50
2018-09-15T16:45:08.069Z,45.30
2018-09-15T16:47:40.095Z,45.70
2018-09-15T16:50:12.798Z,42.20
2018-09-15T16:52:45.401Z,43.90
2018-09-15T16:55:17.583Z,44.00
2018-09-15T16:57:50.020Z,44.20
2018-09-15T17:00:22.313Z,44.80
2018-09-15T17:02:54.745Z,43.40
2018-09-15T17:05:27.096Z,42.60
2018-09-15T17:07:59.277Z,41.00
2018-09-15T17:10:31.725Z,41.30
2018-09-15T17:13:03.961Z,43.00
2018-09-15T17:15:37.741Z,38.60
2018-09-15T17:18:09.781Z,41.00
2018-09-15T17:20:42.079Z,41.40
2018-09-15T17:23:14.457Z,40.10
2018-09-15T17:25:46.933Z,41.20
2018-09-15T17:28:19.737Z,38.10
2018-09-15T17:30:52.015Z,38.60
2018-09-15T17:33:24.399Z,39.00
2018-09-15T17:35:56.558Z,38.30
2018-09-15T17:38:29.587Z,37.20
2018-09-15T17:41:01.633Z,36.40
2018-09-15T17:43:33.677Z,37.40
2018-09-15T17:46:05.694Z,36.80
2018-09-15T17:48:38.156Z,35.20
2018-09-15T17:51:10.425Z,33.60
2018-09-15T17:53:42.762Z,35.60
2018-09-15T17:56:14.588Z,34.00
2018-09-15T17:58:46.797Z,35.00
2018-09-15T18:01:18.979Z,32.70
2018-09-15T18:03:51.370Z,33.60
2018-09-15T18:06:23.666Z,31.40
2018-09-15T18:08:55.868Z,29.20
2018-09-15T18:11:28.240Z,28.50
2018-09-15T18:14:00.797Z,27.60
2018-09-15T18:16:33.265Z,29.50
2018-09-15T18:19:05.753Z,29.40
2018-09-15T18:21:38.558Z,28.20
2018-09-15T18:24:10.942Z,27.70
2018-09-15T18:26:43.242Z,28.80
2018-09-15T18:29:16.147Z,29.00
2018-09-15T18:31:48.249Z,28.20
2018-09-15T18:34:20.603Z,28.60
2018-09-15T18:36:52.704Z,27.80
2018-09-15T18:39:25.519Z,28.80
2018-09-15T18:41:59.100Z,29.10
2018-09-15T18:44:32.065Z,28.10
2018-09-15T18:47:04.333Z,28.10
2018-09-15T18:49:36.920Z,28.60
2018-09-15T18:52:09.179Z,29.40
2018-09-15T18:54:42.781Z,27.40
2018-09-15T18:57:15.274Z,28.00
2018-09-15T18:59:47.739Z,26.80
2018-09-15T19:02:19.968Z,25.20
2018-09-15T19:04:52.164Z,25.20
2018-09-15T19:07:24.088Z,26.20
2018-09-15T19:09:56.277Z,28.00
2018-09-15T19:12:28.883Z,26.60
2018-09-15T19:15:01.180Z,24.80
2018-09-15T19:17:33.599Z,24.50
2018-09-15T19:20:05.845Z,23.80
2018-09-15T19:22:38.232Z,22.50
2018-09-15T19:25:10.547Z,22.20
2018-09-15T19:27:42.573Z,22.90
2018-09-15T19:30:14.951Z,22.80
2018-09-15T19:32:48.091Z,19.90
2018-09-15T19:35:20.472Z,23.10
2018-09-15T19:37:52.899Z,23.20
2018-09-15T19:40:25.233Z,23.30
2018-09-15T19:42:57.805Z,22.90
2018-09-15T19:45:30.440Z,21.70
2018-09-15T19:48:02.557Z,21.30
2018-09-15T19:50:35.256Z,21.80
2018-09-15T19:53:07.363Z,22.60
2018-09-15T19:55:39.662Z,22.60
2018-09-15T19:58:11.849Z,19.50
2018-09-15T20:00:44.221Z,19.10
2018-09-15T20:03:16.356Z,19.80
2018-09-15T20:05:48.707Z,18.00
2018-09-15T20:08:20.885Z,18.00
2018-09-15T20:10:53.186Z,19.50
2018-09-15T20:13:25.717Z,18.80
2018-09-15T20:15:55.381Z,19.90
2018-09-15T20:18:24.866Z,18.00
2018-09-15T20:20:54.059Z,18.10
2018-09-15T20:23:26.370Z,18.10
2018-09-15T20:25:58.470Z,18.60
2018-09-15T20:28:30.955Z,17.00
2018-09-15T20:31:03.156Z,18.20
2018-09-15T20:33:35.640Z,18.30
2018-09-15T20:36:07.927Z,17.40
2018-09-15T20:38:39.981Z,17.80
2018-09-15T20:41:12.005Z,18.70
2018-09-15T20:43:44.560Z,18.10
2018-09-15T20:46:17.268Z,18.10
2018-09-15T20:48:49.597Z,18.10
2018-09-15T20:51:21.882Z,17.60
2018-09-15T20:53:54.382Z,18.00
2018-09-15T20:56:26.471Z,19.10
2018-09-15T20:58:58.791Z,16.10
2018-09-15T21:01:31.158Z,17.50
2018-09-15T21:04:03.619Z,18.50
2018-09-15T21:06:36.165Z,17.10
2018-09-15T21:09:12.371Z,18.50
2018-09-15T21:11:45.099Z,17.70
2018-09-15T21:14:17.512Z,16.00
2018-09-15T21:16:49.880Z,17.90
2018-09-15T21:19:22.187Z,17.50
2018-09-15T21:21:54.512Z,17.70
2018-09-15T21:24:26.934Z,16.70
2018-09-15T21:26:59.056Z,18.30
2018-09-15T21:29:31.398Z,18.80
2018-09-15T21:32:03.258Z,18.40
2018-09-15T21:34:35.603Z,18.30
2018-09-15T21:37:07.430Z,18.20
2018-09-15T21:39:39.513Z,16.20
2018-09-15T21:42:11.321Z,15.10
2018-09-15T21:44:43.222Z,14.60
2018-09-15T21:47:15.986Z,15.50
2018-09-15T21:49:48.123Z,14.80
2018-09-15T21:52:20.473Z,15.10
2018-09-15T21:54:52.195Z,13.20
2018-09-15T21:57:24.062Z,13.40
2018-09-15T21:59:56.114Z,15.00
2018-09-15T22:02:28.746Z,15.10
2018-09-15T22:05:00.994Z,17.30
2018-09-15T22:07:33.072Z,16.10
2018-09-15T22:10:05.275Z,15.90
2018-09-15T22:12:38.010Z,15.50
2018-09-15T22:15:15.448Z,15.20
2018-09-15T22:17:47.653Z,13.50
2018-09-15T22:20:19.475Z,15.40
2018-09-15T22:22:51.920Z,14.60
2018-09-15T22:25:24.123Z,12.60
2018-09-15T22:27:56.308Z,13.60
2018-09-15T22:30:29.066Z,13.90
2018-09-15T22:33:02.326Z,13.00
2018-09-15T22:35:34.173Z,13.20
2018-09-15T22:38:06.058Z,13.90
2018-09-15T22:40:37.907Z,13.50
2018-09-15T22:43:09.890Z,11.70
2018-09-15T22:45:42.433Z,12.40
2018-09-15T22:48:15.261Z,12.30
2018-09-15T22:50:47.125Z,12.10
2018-09-15T22:53:19.378Z,10.80
2018-09-15T22:55:51.340Z,11.30
2018-09-15T22:58:24.700Z,11.20
2018-09-15T23:00:56.575Z,12.30
2018-09-15T23:03:28.905Z,12.60
2018-09-15T23:06:01.216Z,11.00
2018-09-15T23:08:33.359Z,11.90
2018-09-15T23:11:06.187Z,11.00
2018-09-15T23:13:38.678Z,13.30
2018-09-15T23:16:11.026Z,11.70
2018-09-15T23:18:43.524Z,11.40
2018-09-15T23:21:15.902Z,12.80
2018-09-15T23:23:48.398Z,11.10
2018-09-15T23:26:20.999Z,10.60
2018-09-15T23:28:53.316Z,10.70
2018-09-15T23:31:26.065Z,12.40
2018-09-15T23:33:58.308Z,9.70
2018-09-15T23:36:30.725Z,9.20
2018-09-15T23:39:02.864Z,11.40
2018-09-15T23:41:34.969Z,10.20
2018-09-15T23:44:07.768Z,11.40
2018-09-15T23:46:40.312Z,11.50
2018-09-15T23:49:13.098Z,11.50
2018-09-15T23:51:45.676Z,12.40
2018-09-15T23:54:18.275Z,12.30
2018-09-15T23:56:50.847Z,12.90
2018-09-15T23:59:23.048Z,12.80
